createdAt,value
2022-08-17T00:00:49.312Z,23.78
2022-08-17T00:01:52.632Z,23.70
2022-08-17T00:02:36.875Z,23.70
2022-08-17T00:03:34.559Z,23.68
2022-08-17T00:04:34.565Z,23.61
2022-08-17T00:05:34.567Z,23.68
2022-08-17T00:06:34.568Z,23.61
2022-08-17T00:07:34.573Z,23.60
2022-08-17T00:08:34.570Z,23.61
2022-08-17T00:09:34.570Z,23.57
2022-08-17T00:10:34.576Z,23.58
2022-08-17T00:11:34.584Z,23.60
2022-08-17T00:12:41.694Z,23.57
2022-08-17T00:13:34.585Z,23.60
2022-08-17T00:14:34.588Z,23.61
2022-08-17T00:15:34.582Z,23.58
2022-08-17T00:16:55.360Z,23.58
2022-08-17T00:17:34.593Z,23.60
2022-08-17T00:19:01.685Z,23.61
2022-08-17T00:19:34.600Z,23.61
2022-08-17T00:20:35.037Z,23.55
2022-08-17T00:21:56.061Z,23.54
2022-08-17T00:22:36.741Z,23.55
2022-08-17T00:23:34.607Z,23.55
2022-08-17T00:24:34.614Z,23.51
2022-08-17T00:25:34.609Z,23.43
2022-08-17T00:26:44.700Z,23.48
2022-08-17T00:27:34.618Z,23.53
2022-08-17T00:28:34.619Z,23.46
2022-08-17T00:29:34.621Z,23.53
2022-08-17T00:30:51.468Z,23.48
2022-08-17T00:31:34.624Z,23.47
2022-08-17T00:33:14.246Z,23.48
2022-08-17T00:33:34.629Z,23.48
2022-08-17T00:34:34.630Z,23.50
2022-08-17T00:35:34.635Z,23.47
2022-08-17T00:36:34.635Z,23.50
2022-08-17T00:37:34.639Z,23.48
2022-08-17T00:38:34.640Z,23.50
2022-08-17T00:39:34.700Z,23.46
2022-08-17T00:40:39.872Z,23.51
2022-08-17T00:41:34.647Z,23.43
2022-08-17T00:42:34.649Z,23.53
2022-08-17T00:43:34.651Z,23.43
2022-08-17T00:44:34.652Z,23.50
2022-08-17T00:45:34.656Z,23.48
2022-08-17T00:46:34.659Z,23.38
2022-08-17T00:47:34.668Z,23.35
2022-08-17T00:48:34.661Z,23.36
2022-08-17T00:49:34.661Z,23.43
2022-08-17T00:50:34.664Z,23.42
2022-08-17T00:51:34.666Z,23.39
2022-08-17T00:52:34.673Z,23.46
2022-08-17T00:53:34.669Z,23.33
2022-08-17T00:54:41.661Z,23.32
2022-08-17T00:55:34.676Z,23.27
2022-08-17T00:56:34.679Z,23.32
2022-08-17T00:57:34.684Z,23.35
2022-08-17T00:58:36.529Z,23.27
2022-08-17T00:59:34.683Z,23.31
2022-08-17T01:00:34.694Z,23.22
2022-08-17T01:01:34.710Z,23.31
2022-08-17T01:02:41.465Z,23.25
2022-08-17T01:03:34.693Z,23.23
2022-08-17T01:04:34.698Z,23.17
2022-08-17T01:05:34.692Z,23.28
2022-08-17T01:06:34.703Z,23.20
2022-08-17T01:07:34.697Z,23.23
2022-08-17T01:08:34.704Z,23.27
2022-08-17T01:09:34.711Z,23.17
2022-08-17T01:10:57.358Z,23.25
2022-08-17T01:11:34.706Z,23.13
2022-08-17T01:12:34.711Z,23.16
2022-08-17T01:13:40.401Z,23.16
2022-08-17T01:14:34.721Z,23.22
2022-08-17T01:15:34.716Z,23.22
2022-08-17T01:16:34.720Z,23.22
2022-08-17T01:17:34.729Z,23.19
2022-08-17T01:18:34.725Z,23.10
2022-08-17T01:19:34.728Z,23.13
2022-08-17T01:20:47.926Z,23.09
2022-08-17T01:21:34.730Z,23.09
2022-08-17T01:22:34.731Z,23.00
2022-08-17T01:23:34.736Z,23.04
2022-08-17T01:24:34.736Z,22.97
2022-08-17T01:25:34.737Z,22.95
2022-08-17T01:26:34.745Z,22.97
2022-08-17T01:27:34.741Z,22.98
2022-08-17T01:28:54.066Z,23.00
2022-08-17T01:29:34.749Z,23.04
2022-08-17T01:30:56.979Z,22.91
2022-08-17T01:31:34.747Z,22.73
2022-08-17T01:32:34.752Z,22.64
2022-08-17T01:33:34.748Z,22.65
2022-08-17T01:34:42.408Z,22.49
2022-08-17T01:35:34.755Z,22.51
2022-08-17T01:36:34.757Z,22.52
2022-08-17T01:37:34.758Z,22.40
2022-08-17T01:38:34.768Z,22.51
2022-08-17T01:39:34.830Z,22.46
2022-08-17T01:40:34.770Z,22.52
2022-08-17T01:41:34.774Z,22.60
2022-08-17T01:42:34.772Z,22.60
2022-08-17T01:43:34.769Z,22.62
2022-08-17T01:44:34.777Z,22.61
2022-08-17T01:45:34.778Z,22.72
2022-08-17T01:46:34.789Z,22.65
2022-08-17T01:47:36.098Z,22.68
2022-08-17T01:48:34.783Z,22.76
2022-08-17T01:49:34.787Z,22.73
2022-08-17T01:50:34.792Z,22.75
2022-08-17T01:51:34.798Z,22.80
2022-08-17T01:52:34.794Z,22.76
2022-08-17T01:53:34.789Z,22.73
2022-08-17T01:54:34.795Z,22.79
2022-08-17T01:55:34.796Z,22.79
2022-08-17T01:56:34.797Z,22.77
2022-08-17T01:57:34.799Z,22.73
2022-08-17T01:58:34.806Z,22.73
2022-08-17T01:59:34.804Z,22.72
2022-08-17T02:00:59.598Z,22.72
2022-08-17T02:01:34.943Z,22.73
2022-08-17T02:02:34.810Z,22.77
2022-08-17T02:03:34.811Z,22.68
2022-08-17T02:04:34.816Z,22.73
2022-08-17T02:05:34.818Z,22.75
2022-08-17T02:06:52.735Z,22.80
2022-08-17T02:07:59.999Z,22.77
2022-08-17T02:08:37.036Z,22.67
2022-08-17T02:09:34.819Z,22.73
2022-08-17T02:10:34.825Z,22.73
2022-08-17T02:11:34.823Z,22.77
2022-08-17T02:12:37.625Z,22.73
2022-08-17T02:13:34.829Z,22.77
2022-08-17T02:14:34.836Z,22.73
2022-08-17T02:15:34.835Z,22.76
2022-08-17T02:16:36.947Z,22.70
2022-08-17T02:17:34.837Z,22.65
2022-08-17T02:18:34.841Z,22.68
2022-08-17T02:19:34.841Z,22.68
2022-08-17T02:20:41.985Z,22.61
2022-08-17T02:21:34.840Z,22.57
2022-08-17T02:22:34.851Z,22.64
2022-08-17T02:23:34.849Z,22.58
2022-08-17T02:24:59.535Z,22.57
2022-08-17T02:25:34.849Z,22.61
2022-08-17T02:26:34.852Z,22.60
2022-08-17T02:27:34.853Z,22.62
2022-08-17T02:28:34.858Z,22.52
2022-08-17T02:29:34.862Z,22.55
2022-08-17T02:30:59.829Z,22.52
2022-08-17T02:31:34.859Z,22.55
2022-08-17T02:32:34.864Z,22.57
2022-08-17T02:33:42.450Z,22.49
2022-08-17T02:34:34.869Z,22.57
2022-08-17T02:35:34.871Z,22.47
2022-08-17T02:36:34.870Z,22.52
2022-08-17T02:37:34.870Z,22.60
2022-08-17T02:38:34.876Z,22.52
2022-08-17T02:39:34.927Z,22.47
2022-08-17T02:40:36.381Z,22.54
2022-08-17T02:41:34.879Z,22.43
2022-08-17T02:42:34.879Z,22.42
2022-08-17T02:43:34.892Z,22.46
2022-08-17T02:44:39.268Z,22.45
2022-08-17T02:45:34.885Z,22.36
2022-08-17T02:46:34.885Z,22.40
2022-08-17T02:47:34.890Z,22.47
2022-08-17T02:48:34.892Z,22.45
2022-08-17T02:49:34.894Z,22.45
2022-08-17T02:50:34.900Z,22.45
2022-08-17T02:51:34.896Z,22.42
2022-08-17T02:52:42.926Z,22.40
2022-08-17T02:53:35.810Z,22.42
2022-08-17T02:54:41.067Z,22.37
2022-08-17T02:55:34.900Z,22.37
2022-08-17T02:56:34.908Z,22.33
2022-08-17T02:57:34.906Z,22.33
2022-08-17T02:58:36.092Z,22.28
2022-08-17T02:59:34.913Z,22.35
2022-08-17T03:00:34.910Z,22.33
2022-08-17T03:01:34.989Z,22.28
2022-08-17T03:02:34.913Z,22.28
2022-08-17T03:03:34.919Z,22.33
2022-08-17T03:04:35.385Z,22.27
2022-08-17T03:05:34.922Z,22.27
2022-08-17T03:06:34.920Z,22.33
2022-08-17T03:07:34.920Z,22.21
2022-08-17T03:08:34.928Z,22.21
2022-08-17T03:09:34.930Z,22.21
2022-08-17T03:10:34.926Z,22.21
2022-08-17T03:11:34.933Z,22.21
2022-08-17T03:12:34.969Z,22.21
2022-08-17T03:13:34.931Z,22.20
2022-08-17T03:14:38.167Z,22.18
2022-08-17T03:15:34.937Z,22.18
2022-08-17T03:16:34.937Z,22.17
2022-08-17T03:17:34.942Z,22.14
2022-08-17T03:18:34.939Z,22.18
2022-08-17T03:19:34.943Z,22.18
2022-08-17T03:20:34.949Z,22.17
2022-08-17T03:21:34.947Z,22.09
2022-08-17T03:22:36.771Z,22.15
2022-08-17T03:23:34.961Z,22.15
2022-08-17T03:24:34.954Z,22.05
2022-08-17T03:25:34.953Z,22.14
2022-08-17T03:26:34.957Z,22.15
2022-08-17T03:27:34.951Z,22.14
2022-08-17T03:28:34.956Z,22.20
2022-08-17T03:29:34.963Z,22.21
2022-08-17T03:30:34.959Z,22.17
2022-08-17T03:31:36.886Z,22.24
2022-08-17T03:32:34.962Z,22.22
2022-08-17T03:33:34.980Z,22.21
2022-08-17T03:34:34.966Z,22.18
2022-08-17T03:35:34.975Z,22.17
2022-08-17T03:36:35.886Z,22.20
2022-08-17T03:37:35.076Z,22.22
2022-08-17T03:38:38.892Z,22.20
2022-08-17T03:39:35.009Z,22.17
2022-08-17T03:40:58.108Z,22.21
2022-08-17T03:41:34.981Z,22.20
2022-08-17T03:42:34.979Z,22.15
2022-08-17T03:43:34.984Z,22.18
2022-08-17T03:44:34.981Z,22.12
2022-08-17T03:45:34.987Z,22.06
2022-08-17T03:46:35.678Z,22.00
2022-08-17T03:47:34.990Z,21.92
2022-08-17T03:48:34.992Z,21.90
2022-08-17T03:49:34.995Z,21.88
2022-08-17T03:50:34.995Z,21.83
2022-08-17T03:51:34.992Z,21.82
2022-08-17T03:52:34.993Z,21.82
2022-08-17T03:53:34.995Z,21.74
2022-08-17T03:54:35.004Z,21.71
2022-08-17T03:55:36.240Z,21.75
2022-08-17T03:56:35.008Z,21.80
2022-08-17T03:57:35.001Z,21.80
2022-08-17T03:58:35.006Z,21.83
2022-08-17T03:59:35.002Z,21.84
2022-08-17T04:00:35.028Z,21.90
2022-08-17T04:01:35.217Z,21.94
2022-08-17T04:02:35.010Z,21.92
2022-08-17T04:03:35.014Z,21.92
2022-08-17T04:04:35.013Z,21.98
2022-08-17T04:05:35.015Z,21.98
2022-08-17T04:06:35.015Z,22.00
2022-08-17T04:07:35.021Z,21.98
2022-08-17T04:08:35.020Z,21.99
2022-08-17T04:09:35.029Z,22.00
2022-08-17T04:10:38.369Z,22.00
2022-08-17T04:11:35.027Z,21.99
2022-08-17T04:12:35.024Z,21.96
2022-08-17T04:13:35.027Z,22.06
2022-08-17T04:14:35.031Z,21.96
2022-08-17T04:15:35.037Z,22.02
2022-08-17T04:16:35.035Z,21.99
2022-08-17T04:17:35.036Z,21.90
2022-08-17T04:18:35.032Z,21.96
2022-08-17T04:19:35.036Z,22.00
2022-08-17T04:20:35.043Z,21.99
2022-08-17T04:21:35.039Z,21.90
2022-08-17T04:22:35.040Z,22.02
2022-08-17T04:23:35.042Z,22.03
2022-08-17T04:24:35.045Z,21.99
2022-08-17T04:25:35.050Z,22.06
2022-08-17T04:26:54.250Z,22.00
2022-08-17T04:27:35.137Z,22.15
2022-08-17T04:28:35.047Z,22.17
2022-08-17T04:29:54.851Z,22.06
2022-08-17T04:30:35.053Z,22.09
2022-08-17T04:31:35.057Z,22.05
2022-08-17T04:33:04.769Z,22.05
2022-08-17T04:33:35.059Z,22.10
2022-08-17T04:34:35.061Z,22.21
2022-08-17T04:35:35.060Z,22.14
2022-08-17T04:36:35.058Z,22.24
2022-08-17T04:37:35.069Z,22.25
2022-08-17T04:38:35.063Z,22.22
2022-08-17T04:39:35.152Z,22.24
2022-08-17T04:40:35.073Z,22.28
2022-08-17T04:41:35.069Z,22.30
2022-08-17T04:42:35.073Z,22.30
2022-08-17T04:43:35.070Z,22.22
2022-08-17T04:44:37.375Z,22.28
2022-08-17T04:45:35.078Z,22.25
2022-08-17T04:46:35.078Z,22.28
2022-08-17T04:47:35.082Z,22.31
2022-08-17T04:48:37.073Z,22.30
2022-08-17T04:49:35.083Z,22.33
2022-08-17T04:50:35.082Z,22.39
2022-08-17T04:51:35.082Z,22.39
2022-08-17T04:52:43.223Z,22.35
2022-08-17T04:53:35.091Z,22.42
2022-08-17T04:54:35.086Z,22.40
2022-08-17T04:55:35.091Z,22.43
2022-08-17T04:56:35.101Z,22.57
2022-08-17T04:57:39.515Z,22.52
2022-08-17T04:58:35.101Z,22.49
2022-08-17T04:59:35.100Z,22.51
2022-08-17T05:00:35.105Z,22.54
2022-08-17T05:01:35.133Z,22.52
2022-08-17T05:02:35.105Z,22.54
2022-08-17T05:03:35.105Z,22.61
2022-08-17T05:04:35.568Z,22.58
2022-08-17T05:05:35.111Z,22.64
2022-08-17T05:06:35.110Z,22.67
2022-08-17T05:07:35.117Z,22.70
2022-08-17T05:08:35.155Z,22.77
2022-08-17T05:09:35.111Z,22.73
2022-08-17T05:10:35.113Z,22.77
2022-08-17T05:11:35.117Z,22.83
2022-08-17T05:12:35.118Z,22.86
2022-08-17T05:13:35.121Z,22.92
2022-08-17T05:14:35.124Z,22.94
2022-08-17T05:15:36.027Z,22.91
2022-08-17T05:16:35.126Z,23.01
2022-08-17T05:17:35.128Z,23.01
2022-08-17T05:18:35.126Z,23.05
2022-08-17T05:19:35.135Z,23.13
2022-08-17T05:20:35.130Z,23.05
2022-08-17T05:21:35.133Z,23.19
2022-08-17T05:22:35.133Z,23.17
2022-08-17T05:23:42.833Z,23.16
2022-08-17T05:24:38.419Z,23.35
2022-08-17T05:25:36.207Z,23.32
2022-08-17T05:26:36.482Z,23.27
2022-08-17T05:27:35.991Z,23.36
2022-08-17T05:28:35.143Z,23.40
2022-08-17T05:29:35.986Z,23.48
2022-08-17T05:30:35.151Z,23.42
2022-08-17T05:31:35.152Z,23.48
2022-08-17T05:32:37.975Z,23.55
2022-08-17T05:33:35.157Z,23.58
2022-08-17T05:34:35.152Z,23.58
2022-08-17T05:35:35.160Z,23.68
2022-08-17T05:36:42.199Z,23.72
2022-08-17T05:37:35.161Z,23.83
2022-08-17T05:38:35.162Z,23.84
2022-08-17T05:39:35.194Z,23.78
2022-08-17T05:40:35.163Z,23.88
2022-08-17T05:41:35.165Z,23.93
2022-08-17T05:42:35.169Z,23.97
2022-08-17T05:43:35.171Z,23.97
2022-08-17T05:44:35.176Z,24.08
2022-08-17T05:45:54.344Z,24.10
2022-08-17T05:46:35.176Z,24.13
2022-08-17T05:47:35.180Z,24.12
2022-08-17T05:48:35.458Z,24.22
2022-08-17T05:49:35.181Z,24.24
2022-08-17T05:50:35.184Z,24.37
2022-08-17T05:51:35.188Z,24.24
2022-08-17T05:52:35.195Z,24.42
2022-08-17T05:53:35.259Z,24.42
2022-08-17T05:54:35.195Z,24.32
2022-08-17T05:55:35.195Z,24.45
2022-08-17T05:56:35.195Z,24.46
2022-08-17T05:57:35.198Z,24.43
2022-08-17T05:58:35.200Z,24.53
2022-08-17T05:59:35.198Z,24.57
2022-08-17T06:00:35.204Z,24.58
2022-08-17T06:01:35.285Z,24.64
2022-08-17T06:02:35.209Z,24.67
2022-08-17T06:03:35.206Z,24.77
2022-08-17T06:04:35.213Z,24.84
2022-08-17T06:05:35.213Z,24.85
2022-08-17T06:06:35.212Z,24.84
2022-08-17T06:07:35.217Z,24.95
2022-08-17T06:08:35.219Z,25.02
2022-08-17T06:09:35.219Z,25.05
2022-08-17T06:10:35.229Z,25.13
2022-08-17T06:11:35.261Z,25.18
2022-08-17T06:12:35.225Z,25.23
2022-08-17T06:13:35.230Z,25.25
2022-08-17T06:14:35.233Z,25.33
2022-08-17T06:15:35.234Z,25.38
2022-08-17T06:16:35.234Z,25.35
2022-08-17T06:17:35.243Z,25.52
2022-08-17T06:18:35.238Z,25.45
2022-08-17T06:19:35.245Z,25.55
2022-08-17T06:20:35.245Z,25.64
2022-08-17T06:21:35.245Z,25.65
2022-08-17T06:22:35.250Z,25.79
2022-08-17T06:23:35.255Z,25.76
2022-08-17T06:24:35.260Z,25.85
2022-08-17T06:25:35.258Z,25.95
2022-08-17T06:26:39.717Z,25.94
2022-08-17T06:27:35.262Z,26.02
2022-08-17T06:28:35.266Z,26.09
2022-08-17T06:29:35.268Z,26.18
2022-08-17T06:30:59.958Z,26.33
2022-08-17T06:31:35.270Z,26.32
2022-08-17T06:32:35.273Z,26.39
2022-08-17T06:33:35.284Z,26.51
2022-08-17T06:34:35.283Z,26.47
2022-08-17T06:35:35.279Z,26.60
2022-08-17T06:36:35.282Z,26.62
2022-08-17T06:37:35.290Z,26.65
2022-08-17T06:38:38.374Z,26.82
2022-08-17T06:39:35.304Z,26.85
2022-08-17T06:40:35.292Z,26.95
2022-08-17T06:41:37.912Z,27.00
2022-08-17T06:43:02.776Z,27.06
2022-08-17T06:43:35.303Z,27.13
2022-08-17T06:44:44.780Z,27.25
2022-08-17T06:45:35.305Z,27.40
2022-08-17T06:46:35.312Z,27.39
2022-08-17T06:47:35.311Z,27.44
2022-08-17T06:48:35.311Z,27.59
2022-08-17T06:49:35.322Z,27.51
2022-08-17T06:50:35.321Z,27.55
2022-08-17T06:51:35.324Z,27.70
2022-08-17T06:52:47.216Z,27.82
2022-08-17T06:53:35.335Z,27.84
2022-08-17T06:54:35.331Z,27.92
2022-08-17T06:55:38.070Z,27.96
2022-08-17T06:56:54.596Z,28.11
2022-08-17T06:57:35.338Z,28.09
2022-08-17T06:58:35.344Z,28.18
2022-08-17T06:59:54.676Z,28.30
2022-08-17T07:00:35.434Z,28.31
2022-08-17T07:01:35.422Z,28.46
2022-08-17T07:02:52.110Z,28.58
2022-08-17T07:03:35.362Z,28.70
2022-08-17T07:04:35.365Z,28.77
2022-08-17T07:05:35.384Z,28.90
2022-08-17T07:06:38.184Z,29.02
2022-08-17T07:07:35.377Z,29.05
2022-08-17T07:08:35.603Z,29.12
2022-08-17T07:09:35.390Z,29.34
2022-08-17T07:10:35.395Z,29.64
2022-08-17T07:11:35.389Z,29.73
2022-08-17T07:12:35.393Z,29.92
2022-08-17T07:13:35.394Z,30.19
2022-08-17T07:14:35.401Z,30.51
2022-08-17T07:15:35.405Z,31.01
2022-08-17T07:16:35.409Z,31.43
2022-08-17T07:17:47.015Z,32.13
2022-08-17T07:18:35.412Z,32.78
2022-08-17T07:19:35.418Z,33.59
2022-08-17T07:20:35.422Z,34.21
2022-08-17T07:21:35.430Z,34.91
2022-08-17T07:22:57.841Z,35.56
2022-08-17T07:23:35.437Z,36.19
2022-08-17T07:24:35.442Z,36.71
2022-08-17T07:25:35.443Z,37.07
2022-08-17T07:26:35.457Z,37.40
2022-08-17T07:27:35.458Z,37.94
2022-08-17T07:28:35.459Z,38.34
2022-08-17T07:29:35.460Z,38.61
2022-08-17T07:30:37.165Z,38.98
2022-08-17T07:31:35.474Z,39.30
2022-08-17T07:32:35.485Z,39.57
2022-08-17T07:33:35.482Z,39.64
2022-08-17T07:34:35.492Z,39.98
2022-08-17T07:35:40.653Z,40.07
2022-08-17T07:36:35.504Z,40.13
2022-08-17T07:37:35.510Z,40.26
2022-08-17T07:38:35.555Z,40.31
2022-08-17T07:39:35.547Z,40.29
2022-08-17T07:40:35.553Z,40.26
2022-08-17T07:41:57.430Z,40.25
2022-08-17T07:42:35.543Z,40.41
2022-08-17T07:43:35.550Z,40.60
2022-08-17T07:44:35.555Z,40.87
2022-08-17T07:45:35.567Z,41.10
2022-08-17T07:46:35.574Z,41.13
2022-08-17T07:47:35.580Z,41.28
2022-08-17T07:48:35.585Z,41.28
2022-08-17T07:49:35.603Z,41.41
2022-08-17T07:50:35.603Z,41.42
2022-08-17T07:51:35.612Z,41.39
2022-08-17T07:52:50.752Z,41.18
2022-08-17T07:53:35.628Z,41.13
2022-08-17T07:54:35.639Z,41.21
2022-08-17T07:55:35.644Z,41.47
2022-08-17T07:56:35.652Z,41.64
2022-08-17T07:57:35.677Z,41.70
2022-08-17T07:58:35.673Z,41.66
2022-08-17T07:59:35.680Z,41.63
2022-08-17T08:00:35.699Z,41.84
2022-08-17T08:01:39.625Z,41.99
2022-08-17T08:02:35.713Z,42.20
2022-08-17T08:03:35.727Z,42.40
2022-08-17T08:05:02.788Z,42.52
2022-08-17T08:05:49.500Z,42.87
2022-08-17T08:06:35.759Z,43.19
2022-08-17T08:07:35.762Z,43.46
2022-08-17T08:08:35.776Z,43.64
2022-08-17T08:09:35.790Z,43.75
2022-08-17T08:10:35.805Z,44.09
2022-08-17T08:11:35.816Z,44.06
2022-08-17T08:12:35.828Z,43.87
2022-08-17T08:13:35.834Z,43.90
2022-08-17T08:14:35.847Z,44.05
2022-08-17T08:15:35.858Z,44.09
2022-08-17T08:16:35.869Z,44.32
2022-08-17T08:17:35.884Z,44.29
2022-08-17T08:18:53.754Z,44.43
2022-08-17T08:19:35.909Z,44.50
2022-08-17T08:20:53.158Z,44.29
2022-08-17T08:21:35.934Z,44.14
2022-08-17T08:22:35.945Z,44.10
2022-08-17T08:23:35.957Z,44.12
2022-08-17T08:24:35.975Z,44.10
2022-08-17T08:25:35.983Z,44.00
2022-08-17T08:26:36.004Z,43.75
2022-08-17T08:27:36.019Z,43.75
2022-08-17T08:28:36.027Z,43.68
2022-08-17T08:29:36.044Z,43.34
2022-08-17T08:30:36.050Z,42.93
2022-08-17T08:31:41.653Z,42.77
2022-08-17T08:32:36.079Z,42.89
2022-08-17T08:33:36.095Z,42.73
2022-08-17T08:34:44.654Z,42.76
2022-08-17T08:35:36.123Z,42.78
2022-08-17T08:37:14.453Z,42.81
2022-08-17T08:37:42.021Z,42.84
2022-08-17T08:38:36.168Z,43.02
2022-08-17T08:39:36.225Z,43.07
2022-08-17T08:40:36.316Z,42.95
2022-08-17T08:41:36.206Z,43.08
2022-08-17T08:42:36.231Z,43.17
2022-08-17T08:43:36.278Z,43.07
2022-08-17T08:45:00.503Z,43.10
2022-08-17T08:45:36.264Z,43.08
2022-08-17T08:46:36.302Z,43.03
2022-08-17T08:47:36.288Z,43.11
2022-08-17T08:48:53.955Z,43.05
2022-08-17T08:50:02.225Z,43.12
2022-08-17T08:50:38.486Z,43.00
2022-08-17T08:51:36.355Z,43.18
2022-08-17T08:52:36.365Z,43.30
2022-08-17T08:53:36.383Z,43.38
2022-08-17T08:54:36.395Z,43.46
2022-08-17T08:55:36.407Z,43.49
2022-08-17T08:56:36.430Z,43.47
2022-08-17T08:57:36.440Z,43.65
2022-08-17T08:58:41.367Z,44.00
2022-08-17T08:59:36.472Z,44.03
2022-08-17T09:00:36.509Z,43.66
2022-08-17T09:01:36.548Z,43.35
2022-08-17T09:02:36.519Z,43.38
2022-08-17T09:03:51.864Z,43.19
2022-08-17T09:05:09.952Z,43.33
2022-08-17T09:05:36.573Z,43.64
2022-08-17T09:06:39.261Z,43.50
2022-08-17T09:07:36.605Z,43.59
2022-08-17T09:08:36.625Z,43.59
2022-08-17T09:09:36.640Z,43.45
2022-08-17T09:10:36.660Z,43.47
2022-08-17T09:11:36.713Z,43.65
2022-08-17T09:12:36.689Z,43.66
2022-08-17T09:13:36.709Z,43.91
2022-08-17T09:14:45.000Z,44.25
2022-08-17T09:15:36.747Z,44.43
2022-08-17T09:16:36.772Z,44.73
2022-08-17T09:17:36.786Z,44.78
2022-08-17T09:19:03.411Z,45.04
2022-08-17T09:19:36.828Z,45.33
2022-08-17T09:20:36.845Z,45.72
2022-08-17T09:21:36.864Z,46.18
2022-08-17T09:22:36.889Z,46.53
2022-08-17T09:23:36.905Z,46.77
2022-08-17T09:24:36.928Z,46.91
2022-08-17T09:25:36.949Z,47.07
2022-08-17T09:26:36.971Z,47.03
2022-08-17T09:27:36.991Z,46.86
2022-08-17T09:28:37.018Z,46.78
2022-08-17T09:29:37.049Z,46.95
2022-08-17T09:30:37.058Z,47.12
2022-08-17T09:31:48.937Z,47.31
2022-08-17T09:32:37.104Z,47.38
2022-08-17T09:33:37.128Z,47.51
2022-08-17T09:34:37.154Z,47.79
2022-08-17T09:35:37.600Z,47.92
2022-08-17T09:36:37.196Z,48.16
2022-08-17T09:37:37.218Z,48.66
2022-08-17T09:38:37.243Z,49.21
2022-08-17T09:39:37.321Z,49.58
2022-08-17T09:40:37.289Z,50.03
2022-08-17T09:41:37.311Z,50.36
2022-08-17T09:42:37.333Z,50.52
2022-08-17T09:43:37.361Z,50.71
2022-08-17T09:44:37.382Z,50.86
2022-08-17T09:45:37.420Z,50.86
2022-08-17T09:46:38.801Z,50.88
2022-08-17T09:47:37.453Z,50.86
2022-08-17T09:48:37.476Z,50.81
2022-08-17T09:49:37.506Z,51.01
2022-08-17T09:51:05.378Z,50.78
2022-08-17T09:51:37.557Z,50.78
2022-08-17T09:52:37.579Z,50.42
2022-08-17T09:53:37.608Z,50.13
2022-08-17T09:54:39.719Z,50.04
2022-08-17T09:55:37.662Z,50.22
2022-08-17T09:56:41.045Z,50.58
2022-08-17T09:57:37.705Z,51.12
2022-08-17T09:58:37.733Z,51.38
2022-08-17T09:59:38.730Z,51.73
2022-08-17T10:00:37.785Z,51.78
2022-08-17T10:01:37.836Z,52.04
2022-08-17T10:02:37.838Z,52.24
2022-08-17T10:03:37.859Z,52.48
2022-08-17T10:04:37.888Z,52.65
2022-08-17T10:05:37.911Z,52.55
2022-08-17T10:06:37.938Z,52.16
2022-08-17T10:07:37.962Z,52.07
2022-08-17T10:08:37.995Z,52.01
2022-08-17T10:09:38.019Z,51.47
2022-08-17T10:10:38.045Z,51.28
2022-08-17T10:11:38.074Z,50.97
2022-08-17T10:12:38.222Z,49.79
2022-08-17T10:13:38.127Z,48.86
2022-08-17T10:14:43.652Z,47.82
2022-08-17T10:15:38.174Z,46.91
2022-08-17T10:16:38.206Z,46.30
2022-08-17T10:17:38.227Z,45.57
2022-08-17T10:18:38.258Z,45.08
2022-08-17T10:19:38.281Z,44.50
2022-08-17T10:20:38.311Z,43.95
2022-08-17T10:21:38.328Z,43.35
2022-08-17T10:22:38.382Z,43.11
2022-08-17T10:23:38.383Z,42.78
2022-08-17T10:24:38.404Z,42.59
2022-08-17T10:25:54.027Z,42.46
2022-08-17T10:26:46.222Z,42.33
2022-08-17T10:27:38.477Z,42.21
2022-08-17T10:28:38.505Z,42.18
2022-08-17T10:29:49.733Z,41.93
2022-08-17T10:30:38.551Z,41.76
2022-08-17T10:31:38.578Z,41.64
2022-08-17T10:32:38.599Z,41.51
2022-08-17T10:33:38.616Z,41.48
2022-08-17T10:34:41.393Z,41.42
2022-08-17T10:35:38.662Z,41.35
2022-08-17T10:36:38.790Z,41.73
2022-08-17T10:37:38.706Z,41.74
2022-08-17T10:38:38.730Z,41.41
2022-08-17T10:39:52.408Z,41.06
2022-08-17T10:40:38.772Z,41.04
2022-08-17T10:41:40.519Z,41.20
2022-08-17T10:42:38.810Z,40.98
2022-08-17T10:43:38.829Z,40.96
2022-08-17T10:44:41.287Z,40.69
2022-08-17T10:45:38.872Z,40.46
2022-08-17T10:46:38.898Z,40.27
2022-08-17T10:47:54.988Z,40.27
2022-08-17T10:48:38.938Z,40.08
2022-08-17T10:49:38.958Z,40.25
2022-08-17T10:50:38.976Z,40.22
2022-08-17T10:51:38.994Z,40.20
2022-08-17T10:52:39.017Z,40.25
2022-08-17T10:53:39.040Z,40.29
2022-08-17T10:54:39.064Z,40.43
2022-08-17T10:55:39.083Z,40.67
2022-08-17T10:56:39.098Z,40.88
2022-08-17T10:57:39.121Z,40.98
2022-08-17T10:58:39.135Z,41.06
2022-08-17T10:59:39.153Z,40.92
2022-08-17T11:00:39.236Z,40.89
2022-08-17T11:01:39.192Z,40.70
2022-08-17T11:02:39.216Z,40.53
2022-08-17T11:03:39.233Z,40.39
2022-08-17T11:04:39.254Z,40.15
2022-08-17T11:05:43.500Z,40.01
2022-08-17T11:06:39.293Z,39.88
2022-08-17T11:07:39.308Z,39.66
2022-08-17T11:08:39.331Z,39.62
2022-08-17T11:09:39.351Z,39.63
2022-08-17T11:10:39.364Z,39.60
2022-08-17T11:11:39.377Z,39.50
2022-08-17T11:12:39.401Z,39.44
2022-08-17T11:13:39.419Z,39.36
2022-08-17T11:14:39.437Z,39.38
2022-08-17T11:15:39.448Z,39.23
2022-08-17T11:16:39.470Z,39.26
2022-08-17T11:17:39.488Z,39.26
2022-08-17T11:18:39.506Z,39.25
2022-08-17T11:19:39.521Z,39.23
2022-08-17T11:20:39.542Z,39.28
2022-08-17T11:21:39.560Z,40.00
2022-08-17T11:22:39.578Z,40.88
2022-08-17T11:23:39.594Z,41.93
2022-08-17T11:24:39.608Z,42.81
2022-08-17T11:25:39.627Z,43.25
2022-08-17T11:26:39.644Z,43.47
2022-08-17T11:27:39.673Z,43.75
2022-08-17T11:28:39.681Z,44.64
2022-08-17T11:29:39.705Z,45.47
2022-08-17T11:30:39.721Z,45.85
2022-08-17T11:31:40.019Z,46.66
2022-08-17T11:32:47.560Z,47.26
2022-08-17T11:33:39.778Z,47.60
2022-08-17T11:34:39.797Z,48.10
2022-08-17T11:35:39.815Z,48.51
2022-08-17T11:36:39.836Z,49.17
2022-08-17T11:37:39.863Z,48.76
2022-08-17T11:38:39.877Z,48.48
2022-08-17T11:39:39.955Z,48.73
2022-08-17T11:40:39.923Z,49.09
2022-08-17T11:41:39.943Z,48.73
2022-08-17T11:42:39.962Z,48.20
2022-08-17T11:43:42.815Z,47.90
2022-08-17T11:44:40.010Z,47.78
2022-08-17T11:45:40.028Z,47.51
2022-08-17T11:46:40.050Z,46.95
2022-08-17T11:47:40.076Z,46.58
2022-08-17T11:48:40.100Z,46.78
2022-08-17T11:49:40.121Z,46.91
2022-08-17T11:50:40.145Z,46.87
2022-08-17T11:51:40.166Z,46.64
2022-08-17T11:52:40.188Z,46.40
2022-08-17T11:53:40.207Z,45.93
2022-08-17T11:54:40.231Z,45.43
2022-08-17T11:55:44.757Z,45.17
2022-08-17T11:56:40.278Z,44.79
2022-08-17T11:57:40.299Z,44.41
2022-08-17T11:58:40.324Z,44.22
2022-08-17T11:59:40.344Z,44.07
2022-08-17T12:00:40.366Z,43.79
2022-08-17T12:01:40.387Z,43.60
2022-08-17T12:02:44.382Z,43.52
2022-08-17T12:03:40.430Z,43.30
2022-08-17T12:04:40.517Z,43.10
2022-08-17T12:05:40.474Z,42.92
2022-08-17T12:06:40.490Z,42.78
2022-08-17T12:07:40.518Z,42.65
2022-08-17T12:08:40.529Z,42.50
2022-08-17T12:09:40.556Z,42.35
2022-08-17T12:10:40.575Z,42.39
2022-08-17T12:11:56.247Z,42.08
2022-08-17T12:12:40.616Z,41.98
2022-08-17T12:13:40.638Z,42.04
2022-08-17T12:15:08.251Z,42.23
2022-08-17T12:15:40.674Z,42.59
2022-08-17T12:16:40.702Z,42.66
2022-08-17T12:17:42.848Z,42.93
2022-08-17T12:18:40.738Z,43.23
2022-08-17T12:19:40.756Z,43.15
2022-08-17T12:20:40.772Z,42.83
2022-08-17T12:21:40.795Z,42.65
2022-08-17T12:22:40.818Z,42.30
2022-08-17T12:23:40.840Z,42.02
2022-08-17T12:24:40.854Z,41.74
2022-08-17T12:25:40.873Z,41.64
2022-08-17T12:26:40.894Z,41.41
2022-08-17T12:27:48.938Z,41.35
2022-08-17T12:28:40.929Z,41.18
2022-08-17T12:29:40.945Z,40.98
2022-08-17T12:30:40.966Z,40.87
2022-08-17T12:31:40.996Z,40.74
2022-08-17T12:32:41.011Z,40.51
2022-08-17T12:33:41.030Z,40.41
2022-08-17T12:34:41.049Z,40.38
2022-08-17T12:35:41.071Z,40.15
2022-08-17T12:36:41.075Z,40.00
2022-08-17T12:37:41.096Z,39.89
2022-08-17T12:38:41.115Z,39.92
2022-08-17T12:39:41.191Z,39.77
2022-08-17T12:40:41.171Z,39.85
2022-08-17T12:41:41.164Z,39.85
2022-08-17T12:42:41.183Z,39.91
2022-08-17T12:43:41.203Z,39.64
2022-08-17T12:44:50.157Z,39.62
2022-08-17T12:45:41.236Z,39.59
2022-08-17T12:46:41.251Z,39.40
2022-08-17T12:47:41.272Z,39.33
2022-08-17T12:48:58.848Z,39.41
2022-08-17T12:49:41.308Z,39.55
2022-08-17T12:50:41.327Z,39.57
2022-08-17T12:51:41.338Z,39.48
2022-08-17T12:52:41.357Z,39.55